createdAt,value
2023-03-16T00:00:09.932Z,1.45
2023-03-16T00:01:12.732Z,1.46
2023-03-16T00:02:10.267Z,1.42
2023-03-16T00:03:10.292Z,1.46
2023-03-16T00:04:09.893Z,1.5
2023-03-16T00:05:09.981Z,1.48
2023-03-16T00:06:13.002Z,1.42
2023-03-16T00:07:09.974Z,1.49
2023-03-16T00:08:09.981Z,1.52
2023-03-16T00:09:09.929Z,1.49
2023-03-16T00:10:09.985Z,1.4
2023-03-16T00:11:09.941Z,1.49
2023-03-16T00:12:09.975Z,1.42
2023-03-16T00:13:09.951Z,1.52
2023-03-16T00:14:09.916Z,1.48
2023-03-16T00:15:09.990Z,1.48
2023-03-16T00:16:10.409Z,1.42
2023-03-16T00:17:10.150Z,1.42
2023-03-16T00:18:09.950Z,1.42
2023-03-16T00:19:09.960Z,1.39
2023-03-16T00:20:09.994Z,1.34
2023-03-16T00:21:10.022Z,1.39
2023-03-16T00:22:09.992Z,1.34
2023-03-16T00:23:09.951Z,1.42
2023-03-16T00:24:09.964Z,1.42
2023-03-16T00:25:09.962Z,1.4
2023-03-16T00:26:10.024Z,1.28
2023-03-16T00:27:09.972Z,1.24
2023-03-16T00:28:12.789Z,1.38
2023-03-16T00:29:09.929Z,1.31
2023-03-16T00:30:10.240Z,1.38
2023-03-16T00:31:09.975Z,1.34
2023-03-16T00:32:10.061Z,1.31
2023-03-16T00:33:10.255Z,1.31
2023-03-16T00:34:09.969Z,1.24
2023-03-16T00:35:13.416Z,1.28
2023-03-16T00:36:10.035Z,1.36
2023-03-16T00:37:11.031Z,1.31
2023-03-16T00:38:09.939Z,1.3
2023-03-16T00:39:13.007Z,1.22
2023-03-16T00:40:09.967Z,1.39
2023-03-16T00:41:09.986Z,1.31
2023-03-16T00:42:10.034Z,1.24
2023-03-16T00:43:09.982Z,1.28
2023-03-16T00:44:11.033Z,1.27
2023-03-16T00:45:09.963Z,1.24
2023-03-16T00:46:10.361Z,1.31
2023-03-16T00:47:09.954Z,1.36
2023-03-16T00:48:10.027Z,1.38
2023-03-16T00:49:09.966Z,1.38
2023-03-16T00:50:10.226Z,1.28
2023-03-16T00:51:10.005Z,1.3
2023-03-16T00:52:09.991Z,1.27
2023-03-16T00:53:09.965Z,1.21
2023-03-16T00:54:09.978Z,1.28
2023-03-16T00:55:10.026Z,1.16
2023-03-16T00:56:09.979Z,1.21
2023-03-16T00:57:09.978Z,1.21
2023-03-16T00:58:10.006Z,1.04
2023-03-16T00:59:12.780Z,1.16
2023-03-16T01:00:09.995Z,1.18
2023-03-16T01:01:10.247Z,1.18
2023-03-16T01:02:09.990Z,1.16
2023-03-16T01:03:10.264Z,1.14
2023-03-16T01:04:10.012Z,1.1
2023-03-16T01:05:10.020Z,1.18
2023-03-16T01:06:10.002Z,1.2
2023-03-16T01:07:10.064Z,1.16
2023-03-16T01:08:10.017Z,1.16
2023-03-16T01:09:09.991Z,1.12
2023-03-16T01:10:10.053Z,1.09
2023-03-16T01:11:12.855Z,1.09
2023-03-16T01:12:09.997Z,1.1
2023-03-16T01:13:10.026Z,1.14
2023-03-16T01:14:10.076Z,1.03
2023-03-16T01:15:10.063Z,1.09
2023-03-16T01:16:10.074Z,1.09
2023-03-16T01:17:10.436Z,0.95
2023-03-16T01:18:10.008Z,0.94
2023-03-16T01:19:10.018Z,0.96
2023-03-16T01:20:10.068Z,0.99
2023-03-16T01:21:10.051Z,0.96
2023-03-16T01:22:12.708Z,0.94
2023-03-16T01:23:10.020Z,0.92
2023-03-16T01:24:10.045Z,0.99
2023-03-16T01:25:10.056Z,0.92
2023-03-16T01:26:10.088Z,0.94
2023-03-16T01:27:10.153Z,0.95
2023-03-16T01:28:10.061Z,0.92
2023-03-16T01:29:10.044Z,1
2023-03-16T01:30:10.055Z,0.91
2023-03-16T01:31:10.291Z,0.91
2023-03-16T01:32:10.052Z,0.82
2023-03-16T01:33:13.279Z,0.96
2023-03-16T01:34:10.026Z,0.94
2023-03-16T01:35:10.026Z,0.85
2023-03-16T01:36:10.278Z,0.91
2023-03-16T01:37:10.088Z,0.81
2023-03-16T01:38:10.061Z,0.85
2023-03-16T01:39:10.032Z,0.82
2023-03-16T01:40:10.054Z,0.89
2023-03-16T01:41:10.045Z,0.84
2023-03-16T01:42:10.062Z,0.89
2023-03-16T01:43:10.035Z,0.96
2023-03-16T01:44:13.112Z,0.86
2023-03-16T01:45:10.089Z,0.81
2023-03-16T01:46:10.488Z,0.85
2023-03-16T01:47:10.057Z,0.95
2023-03-16T01:48:10.213Z,0.91
2023-03-16T01:49:10.048Z,0.78
2023-03-16T01:50:10.083Z,0.94
2023-03-16T01:51:10.874Z,0.86
2023-03-16T01:52:10.219Z,0.94
2023-03-16T01:53:10.076Z,0.95
2023-03-16T01:54:10.104Z,0.86
2023-03-16T01:55:11.133Z,0.94
2023-03-16T01:56:10.175Z,0.94
2023-03-16T01:57:10.092Z,0.89
2023-03-16T01:58:10.089Z,0.95
2023-03-16T01:59:10.067Z,0.91
2023-03-16T02:00:13.063Z,0.92
2023-03-16T02:01:10.375Z,0.89
2023-03-16T02:02:10.124Z,0.85
2023-03-16T02:03:10.105Z,0.85
2023-03-16T02:04:10.316Z,0.81
2023-03-16T02:05:10.103Z,0.81
2023-03-16T02:06:12.948Z,0.91
2023-03-16T02:07:10.094Z,0.76
2023-03-16T02:08:10.247Z,0.71
2023-03-16T02:09:10.092Z,0.78
2023-03-16T02:10:10.120Z,0.71
2023-03-16T02:11:11.562Z,0.67
2023-03-16T02:12:10.090Z,0.64
2023-03-16T02:13:10.096Z,0.76
2023-03-16T02:14:10.134Z,0.74
2023-03-16T02:15:10.117Z,0.77
2023-03-16T02:16:10.330Z,0.7
2023-03-16T02:17:13.109Z,0.71
2023-03-16T02:18:10.161Z,0.61
2023-03-16T02:19:10.108Z,0.45
2023-03-16T02:20:10.158Z,0.59
2023-03-16T02:21:10.131Z,0.64
2023-03-16T02:22:13.121Z,0.71
2023-03-16T02:23:10.136Z,0.7
2023-03-16T02:24:10.151Z,0.7
2023-03-16T02:25:10.136Z,0.63
2023-03-16T02:26:10.192Z,0.63
2023-03-16T02:27:10.125Z,0.67
2023-03-16T02:28:12.969Z,0.7
2023-03-16T02:29:10.111Z,0.71
2023-03-16T02:30:10.153Z,0.61
2023-03-16T02:31:10.542Z,0.63
2023-03-16T02:32:10.187Z,0.66
2023-03-16T02:33:13.011Z,0.49
2023-03-16T02:34:10.178Z,0.49
2023-03-16T02:35:10.148Z,0.61
2023-03-16T02:36:10.336Z,0.71
2023-03-16T02:37:10.123Z,0.68
2023-03-16T02:38:10.132Z,0.77
2023-03-16T02:39:10.137Z,0.7
2023-03-16T02:40:10.293Z,0.7
2023-03-16T02:41:10.180Z,0.67
2023-03-16T02:42:10.208Z,0.58
2023-03-16T02:43:10.172Z,0.64
2023-03-16T02:44:13.007Z,0.63
2023-03-16T02:45:10.160Z,0.66
2023-03-16T02:46:10.387Z,0.66
2023-03-16T02:47:10.187Z,0.58
2023-03-16T02:48:10.171Z,0.67
2023-03-16T02:49:10.166Z,0.67
2023-03-16T02:50:10.233Z,0.63
2023-03-16T02:51:10.186Z,0.73
2023-03-16T02:52:10.269Z,0.71
2023-03-16T02:53:10.197Z,0.71
2023-03-16T02:54:10.184Z,0.67
2023-03-16T02:55:12.972Z,0.68
2023-03-16T02:56:10.170Z,0.66
2023-03-16T02:57:10.236Z,0.66
2023-03-16T02:58:10.200Z,0.74
2023-03-16T02:59:10.187Z,0.7
2023-03-16T03:00:10.164Z,0.68
2023-03-16T03:01:10.214Z,0.73
2023-03-16T03:02:13.140Z,0.7
2023-03-16T03:03:10.395Z,0.74
2023-03-16T03:04:10.208Z,0.73
2023-03-16T03:05:10.227Z,0.76
2023-03-16T03:06:13.000Z,0.77
2023-03-16T03:07:10.174Z,0.85
2023-03-16T03:08:10.254Z,0.73
2023-03-16T03:09:10.268Z,0.74
2023-03-16T03:10:10.215Z,0.78
2023-03-16T03:11:10.303Z,0.73
2023-03-16T03:12:10.216Z,0.81
2023-03-16T03:13:10.218Z,0.74
2023-03-16T03:14:10.257Z,0.81
2023-03-16T03:15:10.227Z,0.84
2023-03-16T03:16:10.430Z,0.88
2023-03-16T03:17:10.213Z,0.78
2023-03-16T03:18:10.227Z,0.77
2023-03-16T03:19:10.264Z,0.81
2023-03-16T03:20:10.254Z,0.78
2023-03-16T03:21:10.260Z,0.78
2023-03-16T03:22:10.307Z,0.89
2023-03-16T03:23:10.241Z,0.77
2023-03-16T03:24:10.353Z,0.81
2023-03-16T03:25:10.437Z,0.85
2023-03-16T03:26:10.231Z,0.71
2023-03-16T03:27:10.286Z,0.81
2023-03-16T03:28:10.573Z,0.73
2023-03-16T03:29:10.251Z,0.73
2023-03-16T03:30:10.308Z,0.73
2023-03-16T03:31:10.376Z,0.76
2023-03-16T03:32:10.302Z,0.77
2023-03-16T03:33:10.616Z,0.74
2023-03-16T03:34:10.314Z,0.76
2023-03-16T03:35:10.241Z,0.86
2023-03-16T03:36:10.450Z,0.82
2023-03-16T03:37:11.298Z,0.77
2023-03-16T03:38:13.027Z,0.85
2023-03-16T03:39:10.242Z,0.85
2023-03-16T03:40:10.230Z,0.81
2023-03-16T03:41:10.258Z,0.76
2023-03-16T03:42:10.240Z,0.77
2023-03-16T03:43:13.506Z,0.74
2023-03-16T03:44:10.246Z,0.81
2023-03-16T03:45:10.291Z,0.74
2023-03-16T03:46:10.890Z,0.73
2023-03-16T03:47:10.565Z,0.77
2023-03-16T03:48:10.255Z,0.73
2023-03-16T03:49:13.069Z,0.7
2023-03-16T03:50:10.297Z,0.81
2023-03-16T03:51:10.328Z,0.71
2023-03-16T03:52:10.275Z,0.66
2023-03-16T03:53:10.308Z,0.63
2023-03-16T03:54:10.298Z,0.51
2023-03-16T03:55:10.277Z,0.59
2023-03-16T03:56:10.260Z,0.64
2023-03-16T03:57:10.263Z,0.55
2023-03-16T03:58:10.281Z,0.59
2023-03-16T03:59:10.276Z,0.52
2023-03-16T04:00:13.116Z,0.61
2023-03-16T04:01:10.262Z,0.56
2023-03-16T04:02:10.833Z,0.55
2023-03-16T04:03:10.804Z,0.58
2023-03-16T04:04:10.325Z,0.63
2023-03-16T04:05:10.312Z,0.51
2023-03-16T04:06:10.280Z,0.44
2023-03-16T04:07:10.344Z,0.44
2023-03-16T04:08:12.575Z,0.48
2023-03-16T04:09:10.274Z,0.4
2023-03-16T04:10:10.350Z,0.45
2023-03-16T04:11:13.317Z,0.42
2023-03-16T04:12:10.132Z,0.45
2023-03-16T04:13:10.289Z,0.36
2023-03-16T04:14:10.289Z,0.34
2023-03-16T04:15:10.515Z,0.4
2023-03-16T04:16:10.301Z,0.44
2023-03-16T04:17:10.377Z,0.39
2023-03-16T04:18:10.326Z,0.34
2023-03-16T04:19:10.287Z,0.4
2023-03-16T04:20:10.294Z,0.33
2023-03-16T04:21:10.307Z,0.37
2023-03-16T04:22:11.406Z,0.39
2023-03-16T04:23:10.235Z,0.36
2023-03-16T04:24:10.347Z,0.33
2023-03-16T04:25:12.091Z,0.31
2023-03-16T04:26:10.158Z,0.29
2023-03-16T04:27:11.629Z,0.37
2023-03-16T04:28:10.121Z,0.26
2023-03-16T04:29:10.149Z,0.27
2023-03-16T04:30:10.314Z,0.3
2023-03-16T04:31:10.502Z,0.24
2023-03-16T04:32:10.385Z,0.18
2023-03-16T04:33:13.817Z,0.16
2023-03-16T04:34:10.298Z,0.31
2023-03-16T04:35:10.332Z,0.16
2023-03-16T04:36:10.358Z,0.15
2023-03-16T04:37:10.335Z,0.15
2023-03-16T04:38:13.164Z,0.08
2023-03-16T04:39:10.443Z,0.13
2023-03-16T04:40:13.061Z,0.12
2023-03-16T04:41:10.332Z,0.15
2023-03-16T04:42:10.364Z,0.12
2023-03-16T04:43:10.338Z,0.15
2023-03-16T04:44:13.376Z,0.15
2023-03-16T04:45:10.328Z,0.09
2023-03-16T04:46:10.395Z,0.09
2023-03-16T04:47:10.391Z,0.11
2023-03-16T04:48:10.370Z,0.18
2023-03-16T04:49:13.240Z,0.13
2023-03-16T04:50:10.390Z,0.15
2023-03-16T04:51:10.377Z,0.18
2023-03-16T04:52:10.218Z,0.2
2023-03-16T04:53:10.397Z,0.2
2023-03-16T04:54:10.365Z,0.08
2023-03-16T04:55:13.392Z,0.12
2023-03-16T04:56:10.334Z,0.08
2023-03-16T04:57:10.420Z,0.2
2023-03-16T04:58:10.400Z,0.02
2023-03-16T04:59:10.408Z,0.15
2023-03-16T05:00:13.173Z,0.13
2023-03-16T05:01:10.595Z,0.19
2023-03-16T05:02:10.448Z,0.16
2023-03-16T05:03:10.274Z,0.19
2023-03-16T05:04:15.009Z,0.19
2023-03-16T05:05:10.630Z,0.2
2023-03-16T05:06:10.397Z,0.08
2023-03-16T05:07:10.380Z,0.08
2023-03-16T05:08:10.476Z,0.13
2023-03-16T05:09:10.381Z,0.09
2023-03-16T05:10:10.436Z,0.11
2023-03-16T05:11:13.133Z,0.08
2023-03-16T05:12:10.413Z,-0.05
2023-03-16T05:13:10.373Z,0.09
2023-03-16T05:14:10.421Z,0.09
2023-03-16T05:15:10.412Z,0.12
2023-03-16T05:16:10.731Z,0.16
2023-03-16T05:17:10.395Z,0.23
2023-03-16T05:18:10.402Z,0.13
2023-03-16T05:19:10.433Z,0.13
2023-03-16T05:20:10.251Z,0.13
2023-03-16T05:21:10.403Z,0.18
2023-03-16T05:22:13.530Z,0.12
2023-03-16T05:23:10.415Z,0.23
2023-03-16T05:24:10.376Z,0.19
2023-03-16T05:25:10.389Z,0.2
2023-03-16T05:26:10.455Z,0.19
2023-03-16T05:27:10.442Z,0.18
2023-03-16T05:28:10.407Z,0.3
2023-03-16T05:29:10.408Z,0.19
2023-03-16T05:30:10.425Z,0.18
2023-03-16T05:31:10.697Z,0.05
2023-03-16T05:32:10.423Z,0.11
2023-03-16T05:33:13.472Z,0.19
2023-03-16T05:34:10.654Z,0.18
2023-03-16T05:35:10.466Z,0.09
2023-03-16T05:36:10.712Z,0.15
2023-03-16T05:37:10.426Z,0.11
2023-03-16T05:38:10.423Z,0.18
2023-03-16T05:39:10.540Z,0.16
2023-03-16T05:40:10.421Z,0.12
2023-03-16T05:41:11.031Z,0.11
2023-03-16T05:42:10.735Z,0.11
2023-03-16T05:43:10.448Z,0.09
2023-03-16T05:44:10.476Z,0.11
2023-03-16T05:45:10.434Z,0.09
2023-03-16T05:46:10.569Z,0.11
2023-03-16T05:47:10.678Z,0.02
2023-03-16T05:48:10.434Z,0.11
2023-03-16T05:49:10.451Z,0.02
2023-03-16T05:50:10.456Z,0.09
2023-03-16T05:51:10.473Z,0.11
2023-03-16T05:52:10.449Z,0.15
2023-03-16T05:53:10.495Z,0.27
2023-03-16T05:54:10.500Z,0.26
2023-03-16T05:55:10.454Z,0.29
2023-03-16T05:56:10.470Z,0.31
2023-03-16T05:57:10.451Z,0.24
2023-03-16T05:58:10.689Z,0.3
2023-03-16T05:59:10.469Z,0.4
2023-03-16T06:00:10.454Z,0.34
2023-03-16T06:01:10.469Z,0.37
2023-03-16T06:02:10.487Z,0.31
2023-03-16T06:03:10.897Z,0.3
2023-03-16T06:04:10.719Z,0.33
2023-03-16T06:05:13.290Z,0.39
2023-03-16T06:06:10.478Z,0.34
2023-03-16T06:07:10.494Z,0.4
2023-03-16T06:08:10.512Z,0.3
2023-03-16T06:09:10.508Z,0.37
2023-03-16T06:10:10.488Z,0.42
2023-03-16T06:11:10.509Z,0.36
2023-03-16T06:12:10.495Z,0.55
2023-03-16T06:13:10.493Z,0.52
2023-03-16T06:14:10.477Z,0.59
2023-03-16T06:15:10.481Z,0.49
2023-03-16T06:16:13.457Z,0.61
2023-03-16T06:17:10.487Z,0.71
2023-03-16T06:18:10.538Z,0.81
2023-03-16T06:19:10.479Z,0.89
2023-03-16T06:20:10.484Z,0.91
2023-03-16T06:21:10.521Z,1.02
2023-03-16T06:22:10.860Z,1.24
2023-03-16T06:23:10.534Z,1.45
2023-03-16T06:24:10.500Z,1.57
2023-03-16T06:25:10.626Z,1.66
2023-03-16T06:26:10.490Z,1.75
2023-03-16T06:27:13.280Z,1.92
2023-03-16T06:28:10.552Z,1.93
2023-03-16T06:29:10.477Z,2.15
2023-03-16T06:30:10.500Z,2.08
2023-03-16T06:31:10.648Z,2.1
2023-03-16T06:32:10.524Z,2.23
2023-03-16T06:33:10.979Z,2.33
2023-03-16T06:34:10.531Z,2.55
2023-03-16T06:35:10.547Z,2.62
2023-03-16T06:36:10.743Z,2.68
2023-03-16T06:37:10.511Z,2.82
2023-03-16T06:38:13.669Z,2.88
2023-03-16T06:39:10.554Z,3.01
2023-03-16T06:40:10.539Z,3.12
2023-03-16T06:41:10.563Z,3.19
2023-03-16T06:42:10.591Z,3.55
2023-03-16T06:43:10.563Z,3.53
2023-03-16T06:44:10.515Z,3.67
2023-03-16T06:45:10.528Z,3.73
2023-03-16T06:46:10.459Z,3.91
2023-03-16T06:47:10.553Z,3.88
2023-03-16T06:48:10.587Z,3.95
2023-03-16T06:49:11.625Z,4.06
2023-03-16T06:50:10.581Z,3.99
2023-03-16T06:51:10.528Z,3.95
2023-03-16T06:52:10.536Z,4.04
2023-03-16T06:53:10.636Z,4.09
2023-03-16T06:54:13.639Z,4.22
2023-03-16T06:55:10.570Z,4.27
2023-03-16T06:56:10.558Z,4.31
2023-03-16T06:57:10.706Z,4.6
2023-03-16T06:58:10.581Z,4.63
2023-03-16T06:59:10.578Z,4.76
2023-03-16T07:00:13.350Z,4.79
2023-03-16T07:01:10.810Z,4.86
2023-03-16T07:02:10.557Z,4.95
2023-03-16T07:03:10.611Z,5.04
2023-03-16T07:04:10.798Z,5.08
2023-03-16T07:05:13.348Z,5.04
2023-03-16T07:06:10.572Z,5.12
2023-03-16T07:07:10.558Z,5.23
2023-03-16T07:08:10.570Z,5.36
2023-03-16T07:09:10.575Z,5.38
2023-03-16T07:10:10.568Z,5.43
2023-03-16T07:11:13.594Z,5.52
2023-03-16T07:12:10.541Z,5.51
2023-03-16T07:13:10.704Z,5.52
2023-03-16T07:14:10.566Z,5.76
2023-03-16T07:15:10.581Z,5.77
2023-03-16T07:16:13.530Z,5.73
2023-03-16T07:17:10.656Z,5.79
2023-03-16T07:18:10.571Z,5.84
2023-03-16T07:19:10.633Z,5.95
2023-03-16T07:20:10.656Z,6.05
2023-03-16T07:21:10.625Z,6.02
2023-03-16T07:22:10.568Z,5.99
2023-03-16T07:23:10.605Z,5.91
2023-03-16T07:24:10.572Z,5.83
2023-03-16T07:25:10.616Z,5.94
2023-03-16T07:26:10.738Z,6.28
2023-03-16T07:27:15.940Z,6.32
2023-03-16T07:28:10.633Z,6.41
2023-03-16T07:29:10.631Z,6.52
2023-03-16T07:30:10.618Z,6.71
2023-03-16T07:31:10.603Z,6.74
2023-03-16T07:32:10.969Z,6.92
2023-03-16T07:33:11.036Z,7.03
2023-03-16T07:34:10.597Z,6.93
2023-03-16T07:35:10.613Z,7.1
2023-03-16T07:36:11.114Z,7
2023-03-16T07:37:10.632Z,7.1
2023-03-16T07:38:10.872Z,7.14
2023-03-16T07:39:10.658Z,7.07
2023-03-16T07:40:10.607Z,7.22
2023-03-16T07:41:10.766Z,7.13
2023-03-16T07:42:10.665Z,7.28
2023-03-16T07:43:10.718Z,7.31
2023-03-16T07:44:10.648Z,7.31
2023-03-16T07:45:10.675Z,7.39
2023-03-16T07:46:10.819Z,7.44
2023-03-16T07:47:10.648Z,7.21
2023-03-16T07:48:10.662Z,7.4
2023-03-16T07:49:13.608Z,7.39
2023-03-16T07:50:10.627Z,7.5
2023-03-16T07:51:10.632Z,7.8
2023-03-16T07:52:10.630Z,7.77
2023-03-16T07:53:10.696Z,7.9
2023-03-16T07:54:10.630Z,7.91
2023-03-16T07:55:10.630Z,8.05
2023-03-16T07:56:10.624Z,8.08
2023-03-16T07:57:10.627Z,8.03
2023-03-16T07:58:10.667Z,8.26
2023-03-16T07:59:10.610Z,8.24
2023-03-16T08:00:13.705Z,8.24
2023-03-16T08:01:10.729Z,8.35
2023-03-16T08:02:10.786Z,8.26
2023-03-16T08:03:10.756Z,8.42
2023-03-16T08:04:10.739Z,8.66
2023-03-16T08:05:10.700Z,8.38
2023-03-16T08:06:10.701Z,8.61
2023-03-16T08:07:10.628Z,8.71
2023-03-16T08:08:10.647Z,8.84
2023-03-16T08:09:10.712Z,8.82
2023-03-16T08:10:10.645Z,9
2023-03-16T08:11:10.683Z,9.16
2023-03-16T08:12:10.662Z,9.05
2023-03-16T08:13:10.832Z,8.99
2023-03-16T08:14:10.765Z,9.03
2023-03-16T08:15:10.709Z,8.89
2023-03-16T08:16:11.039Z,9.13
2023-03-16T08:17:10.674Z,9.22
2023-03-16T08:18:10.678Z,9.27
2023-03-16T08:19:10.697Z,9.24
2023-03-16T08:20:10.718Z,9.48
2023-03-16T08:21:10.653Z,9.69
2023-03-16T08:22:10.684Z,9.81
2023-03-16T08:23:10.690Z,9.54
2023-03-16T08:24:10.685Z,9.49
2023-03-16T08:25:10.820Z,9.48
2023-03-16T08:26:10.696Z,9.64
2023-03-16T08:27:10.665Z,9.67
2023-03-16T08:28:10.711Z,9.59
2023-03-16T08:29:10.855Z,9.56
2023-03-16T08:30:10.733Z,9.54
2023-03-16T08:31:10.883Z,9.44
2023-03-16T08:32:13.456Z,9.22
2023-03-16T08:33:10.985Z,9.34
2023-03-16T08:34:10.688Z,9.19
2023-03-16T08:35:10.732Z,9.09
2023-03-16T08:36:10.888Z,9.29
2023-03-16T08:37:10.694Z,9.4
2023-03-16T08:38:10.720Z,9.29
2023-03-16T08:39:14.322Z,9.45
2023-03-16T08:40:10.710Z,9.62
2023-03-16T08:41:10.735Z,9.74
2023-03-16T08:42:10.778Z,9.8
2023-03-16T08:43:12.485Z,9.91
2023-03-16T08:44:10.767Z,9.97
2023-03-16T08:45:13.702Z,10.17
2023-03-16T08:46:10.866Z,10.36
2023-03-16T08:47:10.750Z,10.42
2023-03-16T08:48:10.761Z,10.36
2023-03-16T08:49:10.704Z,10.58
2023-03-16T08:50:10.720Z,10.55
2023-03-16T08:51:10.701Z,10.57
2023-03-16T08:52:10.716Z,10.75
2023-03-16T08:53:10.733Z,10.95
2023-03-16T08:54:13.549Z,10.82
2023-03-16T08:55:10.722Z,11.01
2023-03-16T08:56:10.735Z,10.97
2023-03-16T08:57:10.830Z,11
2023-03-16T08:58:10.790Z,11.27
2023-03-16T08:59:30.001Z,11.08
2023-03-16T09:00:10.713Z,11.31
2023-03-16T09:01:10.716Z,11.37
2023-03-16T09:02:10.923Z,11.35
2023-03-16T09:03:10.722Z,11.45
2023-03-16T09:04:10.988Z,11.58
2023-03-16T09:05:13.586Z,11.63
2023-03-16T09:06:10.733Z,11.65
2023-03-16T09:07:14.071Z,11.95
2023-03-16T09:08:10.814Z,11.83
2023-03-16T09:09:10.787Z,12.07
2023-03-16T09:10:10.724Z,11.91
2023-03-16T09:11:10.785Z,11.91
2023-03-16T09:12:10.838Z,11.97
2023-03-16T09:13:10.804Z,11.93
2023-03-16T09:14:10.920Z,12.14
2023-03-16T09:15:10.728Z,12.3
2023-03-16T09:16:14.003Z,12.43
2023-03-16T09:17:10.748Z,12.23
2023-03-16T09:18:10.639Z,12.45
2023-03-16T09:19:10.745Z,12.43
2023-03-16T09:20:33.221Z,12.26
2023-03-16T09:21:13.521Z,12.36
2023-03-16T09:22:10.749Z,12.29
2023-03-16T09:23:10.821Z,12.44
2023-03-16T09:24:10.569Z,12.44
2023-03-16T09:25:10.790Z,12.58
2023-03-16T09:26:10.768Z,12.45
2023-03-16T09:27:14.108Z,12.5
2023-03-16T09:28:10.836Z,12.62
2023-03-16T09:29:10.783Z,12.47
2023-03-16T09:30:10.778Z,12.91
2023-03-16T09:31:11.017Z,12.68
2023-03-16T09:32:13.637Z,12.63
2023-03-16T09:33:11.109Z,12.76
2023-03-16T09:34:10.801Z,12.93
2023-03-16T09:35:10.833Z,12.86
2023-03-16T09:36:10.989Z,13.02
2023-03-16T09:37:10.794Z,13.06
2023-03-16T09:38:13.193Z,12.91
2023-03-16T09:39:10.803Z,12.86
2023-03-16T09:40:16.339Z,12.69
2023-03-16T09:41:10.807Z,12.66
2023-03-16T09:42:10.809Z,12.94
2023-03-16T09:43:13.983Z,12.62
2023-03-16T09:44:10.652Z,12.44
2023-03-16T09:45:10.854Z,12.55
2023-03-16T09:46:10.911Z,12.35
2023-03-16T09:47:10.808Z,12.3
2023-03-16T09:48:10.656Z,12.48
2023-03-16T09:49:13.614Z,12.43
2023-03-16T09:50:11.178Z,12.5
2023-03-16T09:51:11.214Z,12.36
2023-03-16T09:52:10.894Z,12.44
2023-03-16T09:53:10.798Z,12.1
2023-03-16T09:54:13.629Z,12.37
2023-03-16T09:55:10.803Z,12.18
2023-03-16T09:56:10.832Z,12.11
2023-03-16T09:57:10.829Z,12.29
2023-03-16T09:58:10.807Z,12.36
2023-03-16T09:59:12.193Z,12.3
2023-03-16T10:00:10.825Z,12.36
2023-03-16T10:01:11.301Z,12.32
2023-03-16T10:02:10.839Z,12.57
2023-03-16T10:03:10.829Z,12.62
2023-03-16T10:04:11.125Z,12.66
2023-03-16T10:05:13.845Z,12.87
2023-03-16T10:06:10.836Z,12.93
2023-03-16T10:07:10.833Z,12.93
2023-03-16T10:08:10.875Z,13.2
2023-03-16T10:09:10.852Z,13.17
2023-03-16T10:10:10.849Z,13.23
2023-03-16T10:11:10.875Z,13.33
2023-03-16T10:12:10.830Z,13.12
2023-03-16T10:13:10.835Z,13.13
2023-03-16T10:14:10.832Z,13.19
2023-03-16T10:15:11.070Z,13.28
2023-03-16T10:16:14.122Z,13.2
2023-03-16T10:17:10.858Z,13.37
2023-03-16T10:18:13.308Z,13.09
2023-03-16T10:19:10.774Z,12.98
2023-03-16T10:20:11.051Z,12.93
2023-03-16T10:21:10.873Z,12.83
2023-03-16T10:22:10.866Z,12.86
2023-03-16T10:23:10.860Z,13.11
2023-03-16T10:24:10.954Z,12.93
2023-03-16T10:25:10.720Z,12.88
2023-03-16T10:26:10.857Z,12.91
2023-03-16T10:27:11.963Z,13.09
2023-03-16T10:28:10.903Z,13.06
2023-03-16T10:29:10.859Z,13.2
2023-03-16T10:30:11.068Z,13.08
2023-03-16T10:31:10.951Z,13.19
2023-03-16T10:32:11.115Z,12.93
2023-03-16T10:33:13.175Z,12.95
2023-03-16T10:34:10.878Z,12.88
2023-03-16T10:35:10.950Z,12.98
2023-03-16T10:36:11.224Z,13.33
2023-03-16T10:37:10.903Z,13.28
2023-03-16T10:38:10.886Z,13.39
2023-03-16T10:39:10.867Z,13.37
2023-03-16T10:40:10.951Z,13.46
2023-03-16T10:41:10.881Z,13.45
2023-03-16T10:42:12.029Z,13.2
2023-03-16T10:43:10.942Z,13.2
2023-03-16T10:44:10.911Z,13.42
2023-03-16T10:45:10.916Z,13.28
2023-03-16T10:46:12.491Z,13.19
2023-03-16T10:47:11.204Z,12.95
2023-03-16T10:48:10.933Z,12.87
2023-03-16T10:49:10.773Z,12.94
2023-03-16T10:50:10.957Z,12.83
2023-03-16T10:51:10.898Z,12.9
2023-03-16T10:52:10.962Z,13.06
2023-03-16T10:53:10.977Z,13.46
2023-03-16T10:54:11.018Z,13.3
2023-03-16T10:55:10.957Z,13.5
2023-03-16T10:56:10.960Z,13.75
2023-03-16T10:57:10.935Z,13.64
2023-03-16T10:58:10.926Z,13.65
2023-03-16T10:59:12.039Z,13.82
2023-03-16T11:00:10.946Z,13.75
2023-03-16T11:01:11.088Z,13.55
2023-03-16T11:02:10.926Z,13.52
2023-03-16T11:03:10.931Z,13.55
2023-03-16T11:04:11.278Z,13.85
2023-03-16T11:05:10.964Z,13.94
2023-03-16T11:06:10.956Z,13.87
2023-03-16T11:07:10.944Z,13.85
2023-03-16T11:08:10.933Z,13.6
2023-03-16T11:09:11.217Z,13.46
2023-03-16T11:10:13.974Z,13.17
2023-03-16T11:11:10.972Z,13.09
2023-03-16T11:12:10.989Z,13.19
2023-03-16T11:13:10.982Z,13.39
2023-03-16T11:14:10.963Z,13.2
2023-03-16T11:15:31.942Z,13.31
2023-03-16T11:16:11.001Z,13.3
2023-03-16T11:17:11.027Z,13.54
2023-03-16T11:18:10.798Z,13.39
2023-03-16T11:19:11.072Z,13.37
2023-03-16T11:20:11.141Z,13.46
2023-03-16T11:21:13.734Z,13.46
2023-03-16T11:22:11.009Z,13.46
2023-03-16T11:23:11.000Z,13.54
2023-03-16T11:24:11.089Z,13.27
2023-03-16T11:25:11.141Z,13.31
2023-03-16T11:26:10.997Z,13.36
2023-03-16T11:27:10.973Z,13.43
2023-03-16T11:28:11.015Z,13.57
2023-03-16T11:29:11.042Z,13.79
2023-03-16T11:30:10.968Z,13.82
2023-03-16T11:31:11.188Z,13.8
2023-03-16T11:32:16.312Z,13.76
2023-03-16T11:33:11.166Z,13.87
2023-03-16T11:34:11.330Z,13.83
2023-03-16T11:35:11.008Z,13.62
2023-03-16T11:36:11.140Z,13.57
2023-03-16T11:37:11.030Z,13.71
2023-03-16T11:38:11.010Z,13.97
2023-03-16T11:39:11.024Z,13.89
2023-03-16T11:40:11.019Z,13.91
2023-03-16T11:41:11.035Z,14.08
2023-03-16T11:42:10.995Z,14.13
2023-03-16T11:43:14.159Z,14.13
2023-03-16T11:44:11.023Z,14.25
2023-03-16T11:45:11.004Z,14.34
2023-03-16T11:46:11.143Z,14.22
2023-03-16T11:47:11.011Z,14.2
2023-03-16T11:48:14.122Z,14.05
2023-03-16T11:49:11.050Z,13.79
2023-03-16T11:50:11.020Z,14.11
2023-03-16T11:51:11.132Z,14.31
2023-03-16T11:52:11.058Z,14.22
2023-03-16T11:53:11.024Z,14.28
2023-03-16T11:54:13.854Z,14.23
2023-03-16T11:55:11.014Z,14.3
2023-03-16T11:56:11.013Z,14.44
2023-03-16T11:57:11.067Z,14.38
2023-03-16T11:58:11.020Z,14.45
2023-03-16T11:59:11.910Z,14.52
2023-03-16T12:00:11.046Z,14.48
2023-03-16T12:01:11.129Z,14.41
2023-03-16T12:02:11.240Z,14.74
2023-03-16T12:03:11.294Z,14.52
2023-03-16T12:04:11.200Z,14.19
2023-03-16T12:05:14.085Z,14.45
2023-03-16T12:06:28.298Z,14.48
2023-03-16T12:07:11.054Z,14.58
2023-03-16T12:08:11.109Z,14.66
2023-03-16T12:09:11.066Z,14.73
2023-03-16T12:10:13.799Z,14.68
2023-03-16T12:11:11.055Z,14.41
2023-03-16T12:12:11.049Z,14.56
2023-03-16T12:13:11.081Z,14.16
2023-03-16T12:14:11.079Z,13.98
2023-03-16T12:15:11.063Z,14.11
2023-03-16T12:16:14.282Z,14.19
2023-03-16T12:17:11.239Z,14.15
2023-03-16T12:18:14.021Z,14.07
2023-03-16T12:19:11.174Z,14.05
2023-03-16T12:20:11.093Z,13.75
2023-03-16T12:21:13.923Z,13.91
2023-03-16T12:22:11.114Z,13.97
2023-03-16T12:23:11.053Z,14.16
2023-03-16T12:24:11.106Z,13.97
2023-03-16T12:25:11.054Z,13.95
2023-03-16T12:26:11.059Z,13.89
2023-03-16T12:27:11.056Z,13.79
2023-03-16T12:28:11.091Z,13.91
2023-03-16T12:29:11.140Z,13.78
2023-03-16T12:30:11.075Z,13.8
2023-03-16T12:31:11.250Z,14.03
2023-03-16T12:32:14.395Z,14.05
2023-03-16T12:33:11.176Z,14.3
2023-03-16T12:34:11.140Z,14.38
2023-03-16T12:35:13.159Z,14.16
2023-03-16T12:36:11.223Z,13.89
2023-03-16T12:37:11.110Z,14.2
2023-03-16T12:38:11.099Z,14.19
2023-03-16T12:39:11.089Z,14.25
2023-03-16T12:40:11.122Z,14.12
2023-03-16T12:41:11.102Z,14.05
2023-03-16T12:42:11.095Z,13.94
2023-03-16T12:43:14.350Z,14.07
2023-03-16T12:44:11.198Z,13.86
2023-03-16T12:45:11.155Z,13.8
2023-03-16T12:46:11.517Z,13.67
2023-03-16T12:47:11.124Z,13.64
2023-03-16T12:48:11.132Z,13.75
2023-03-16T12:49:11.168Z,13.83
2023-03-16T12:50:11.110Z,13.75
2023-03-16T12:51:11.129Z,13.79
2023-03-16T12:52:13.525Z,13.82
2023-03-16T12:53:11.153Z,13.94
2023-03-16T12:54:12.652Z,13.98
2023-03-16T12:55:11.142Z,13.95
2023-03-16T12:56:11.138Z,14.08
2023-03-16T12:57:11.118Z,13.95
2023-03-16T12:58:11.147Z,14.04
2023-03-16T12:59:11.162Z,13.93
2023-03-16T13:00:11.135Z,14.07
2023-03-16T13:01:11.301Z,13.89
2023-03-16T13:02:11.125Z,13.89
2023-03-16T13:03:11.156Z,13.94
2023-03-16T13:04:11.253Z,13.83
2023-03-16T13:05:11.134Z,13.86
2023-03-16T13:06:11.137Z,13.95
2023-03-16T13:07:11.174Z,13.76
2023-03-16T13:08:11.193Z,14.05
2023-03-16T13:09:11.190Z,14.26
2023-03-16T13:10:11.134Z,14.26
2023-03-16T13:11:11.158Z,14.19
2023-03-16T13:12:12.798Z,14.04